createdAt,value
2022-10-13T00:00:25.672Z,89
2022-10-13T00:01:39.859Z,89.1
2022-10-13T00:02:54.012Z,89.1
2022-10-13T00:05:18.951Z,88.9
2022-10-13T00:06:29.818Z,88.8
2022-10-13T00:07:43.972Z,88.8
2022-10-13T00:08:58.123Z,88.8
2022-10-13T00:10:12.210Z,89
2022-10-13T00:11:26.348Z,89.1
2022-10-13T00:12:40.447Z,89.1
2022-10-13T00:13:54.576Z,89.2
2022-10-13T00:15:08.751Z,89.3
2022-10-13T00:17:36.981Z,89.5
2022-10-13T00:18:47.820Z,89.5
2022-10-13T00:19:58.735Z,89.6
2022-10-13T00:22:26.970Z,89.8
2022-10-13T00:23:41.155Z,89.8
2022-10-13T00:27:31.665Z,89.4
2022-10-13T00:28:45.753Z,89.4
2022-10-13T00:29:59.946Z,89.4
2022-10-13T00:31:10.762Z,89.4
2022-10-13T00:32:21.627Z,89.4
2022-10-13T00:33:35.757Z,89.4
2022-10-13T00:36:04.004Z,89.5
2022-10-13T00:38:32.287Z,89.6
2022-10-13T00:39:46.412Z,89.6
2022-10-13T00:41:00.533Z,89.6
2022-10-13T00:42:14.652Z,89.6
2022-10-13T00:43:28.842Z,89.5
2022-10-13T00:44:39.264Z,89.5
2022-10-13T00:45:50.114Z,89.6
2022-10-13T00:47:04.216Z,89.8
2022-10-13T00:48:18.388Z,89.8
2022-10-13T00:49:32.488Z,90
2022-10-13T00:52:00.711Z,90
2022-10-13T00:53:14.878Z,90
2022-10-13T00:55:43.103Z,90
2022-10-13T00:56:57.262Z,90
2022-10-13T01:00:33.090Z,90
2022-10-13T01:03:01.356Z,90
2022-10-13T01:05:29.654Z,90
2022-10-13T01:07:57.898Z,90
2022-10-13T01:10:26.171Z,90
2022-10-13T01:11:37.000Z,90
2022-10-13T01:12:47.879Z,90
2022-10-13T01:15:16.106Z,90
2022-10-13T01:16:30.231Z,90
2022-10-13T01:17:44.352Z,90
2022-10-13T01:18:58.550Z,90
2022-10-13T01:20:12.673Z,90
2022-10-13T01:23:55.007Z,90
2022-10-13T01:25:05.904Z,90.2
2022-10-13T01:26:16.747Z,90.2
2022-10-13T01:27:30.883Z,90.2
2022-10-13T01:28:45.025Z,90.2
2022-10-13T01:29:59.178Z,90.2
2022-10-13T01:31:13.294Z,90.3
2022-10-13T01:32:27.364Z,90.3
2022-10-13T01:33:41.496Z,90.3
2022-10-13T01:36:09.816Z,90.4
2022-10-13T01:38:34.814Z,90.4
2022-10-13T01:39:45.659Z,90.4
2022-10-13T01:40:59.765Z,90.5
2022-10-13T01:42:13.901Z,90.5
2022-10-13T01:43:28.045Z,90.5
2022-10-13T01:45:56.280Z,90.4
2022-10-13T01:47:10.420Z,90.4
2022-10-13T01:48:24.527Z,90.4
2022-10-13T01:49:38.673Z,90.4
2022-10-13T01:52:03.672Z,90.3
2022-10-13T01:54:28.664Z,90.2
2022-10-13T01:55:42.801Z,90.2
2022-10-13T01:56:56.918Z,90.3
2022-10-13T01:58:11.038Z,90.3
2022-10-13T01:59:25.187Z,90.3
2022-10-13T02:00:39.299Z,90.3
2022-10-13T02:03:07.549Z,90.2
2022-10-13T02:04:21.686Z,90.2
2022-10-13T02:07:57.578Z,90.5
2022-10-13T02:09:11.699Z,90.5
2022-10-13T02:10:25.780Z,90.6
2022-10-13T02:11:39.944Z,90.6
2022-10-13T02:12:54.068Z,90.6
2022-10-13T02:14:08.186Z,90.6
2022-10-13T02:15:22.353Z,90.6
2022-10-13T02:16:36.441Z,90.6
2022-10-13T02:17:50.617Z,90.6
2022-10-13T02:20:12.272Z,90.6
2022-10-13T02:21:26.444Z,90.6
2022-10-13T02:22:40.580Z,90.6
2022-10-13T02:23:54.697Z,90.6
2022-10-13T02:25:08.840Z,90.6
2022-10-13T02:27:37.086Z,90.6
2022-10-13T02:28:51.221Z,90.6
2022-10-13T02:30:05.322Z,90.7
2022-10-13T02:31:19.502Z,90.7
2022-10-13T02:32:30.322Z,90.7
2022-10-13T02:34:55.312Z,90.8
2022-10-13T02:37:23.592Z,90.8
2022-10-13T02:39:51.804Z,90.8
2022-10-13T02:42:20.077Z,90.8
2022-10-13T02:44:51.660Z,90.7
2022-10-13T02:46:02.496Z,90.7
2022-10-13T02:47:16.587Z,90.7
2022-10-13T02:48:30.805Z,90.8
2022-10-13T02:51:07.180Z,90.8
2022-10-13T02:53:35.434Z,90.9
2022-10-13T02:54:49.557Z,90.8
2022-10-13T02:56:03.737Z,90.8
2022-10-13T02:57:14.592Z,90.7
2022-10-13T02:58:25.470Z,90.7
2022-10-13T03:00:53.685Z,90.7
2022-10-13T03:02:07.852Z,90.6
2022-10-13T03:03:21.992Z,90.6
2022-10-13T03:04:36.125Z,90.5
2022-10-13T03:05:50.228Z,90.5
2022-10-13T03:07:04.367Z,90.5
2022-10-13T03:08:18.460Z,90.5
2022-10-13T03:09:32.601Z,90.5
2022-10-13T03:10:43.511Z,90.4
2022-10-13T03:11:54.309Z,90.4
2022-10-13T03:14:22.556Z,90.4
2022-10-13T03:15:36.720Z,90.4
2022-10-13T03:16:50.849Z,90.4
2022-10-13T03:18:05.020Z,90.4
2022-10-13T03:19:19.077Z,90.5
2022-10-13T03:21:47.335Z,90.5
2022-10-13T03:23:01.457Z,90.4
2022-10-13T03:24:12.357Z,90.4
2022-10-13T03:25:23.201Z,90.4
2022-10-13T03:26:37.366Z,90.4
2022-10-13T03:27:51.504Z,90.4
2022-10-13T03:30:19.714Z,90.4
2022-10-13T03:31:33.903Z,90.3
2022-10-13T03:34:02.127Z,90.2
2022-10-13T03:35:16.251Z,90.2
2022-10-13T03:36:30.367Z,90.2
2022-10-13T03:37:41.221Z,90
2022-10-13T03:40:06.225Z,90
2022-10-13T03:42:34.485Z,90
2022-10-13T03:43:48.617Z,90.2
2022-10-13T03:46:16.876Z,90
2022-10-13T03:47:30.984Z,90
2022-10-13T03:48:45.130Z,90.2
2022-10-13T03:49:59.263Z,90.2
2022-10-13T03:51:10.176Z,90.3
2022-10-13T03:52:21.027Z,90.4
2022-10-13T03:53:35.163Z,90.5
2022-10-13T03:54:49.262Z,90.5
2022-10-13T03:56:03.386Z,90.5
2022-10-13T03:57:17.546Z,90.5
2022-10-13T03:58:31.616Z,90.5
2022-10-13T03:59:45.814Z,90.6
2022-10-13T04:00:59.932Z,90.6
2022-10-13T04:02:14.042Z,90.6
2022-10-13T04:03:28.156Z,90.7
2022-10-13T04:04:39.051Z,90.7
2022-10-13T04:05:49.952Z,90.8
2022-10-13T04:07:04.007Z,90.7
2022-10-13T04:08:18.180Z,90.7
2022-10-13T04:09:32.336Z,90.8
2022-10-13T04:10:54.599Z,90.7
2022-10-13T04:12:08.756Z,90.7
2022-10-13T04:13:22.856Z,90.7
2022-10-13T04:15:51.123Z,90.8
2022-10-13T04:18:12.838Z,90.7
2022-10-13T04:19:26.994Z,90.7
2022-10-13T04:20:41.084Z,90.6
2022-10-13T04:23:09.379Z,90.4
2022-10-13T04:24:23.496Z,90.4
2022-10-13T04:26:51.717Z,90.5
2022-10-13T04:28:05.937Z,90.4
2022-10-13T04:29:23.253Z,90.3
2022-10-13T04:30:34.181Z,90.3
2022-10-13T04:31:48.257Z,90.4
2022-10-13T04:33:02.424Z,90.4
2022-10-13T04:34:16.559Z,90.4
2022-10-13T04:35:30.675Z,90.3
2022-10-13T04:36:44.779Z,90.3
2022-10-13T04:37:58.936Z,90.3
2022-10-13T04:39:13.076Z,90.3
2022-10-13T04:40:27.202Z,90.3
2022-10-13T04:41:41.367Z,90.2
2022-10-13T04:42:51.813Z,89.8
2022-10-13T04:44:02.644Z,89.8
2022-10-13T04:45:16.829Z,90
2022-10-13T04:47:45.063Z,90
2022-10-13T04:48:59.158Z,90
2022-10-13T04:50:13.298Z,90
2022-10-13T04:51:27.451Z,90
2022-10-13T04:52:41.625Z,90
2022-10-13T04:55:09.843Z,90
2022-10-13T04:56:20.711Z,90
2022-10-13T04:57:31.554Z,90
2022-10-13T05:00:08.025Z,89.8
2022-10-13T05:01:22.138Z,89.8
2022-10-13T05:02:36.351Z,89.4
2022-10-13T05:03:58.613Z,89.2
2022-10-13T05:05:12.701Z,89.2
2022-10-13T05:07:40.947Z,89.3
2022-10-13T05:08:51.805Z,89.3
2022-10-13T05:10:02.724Z,89.4
2022-10-13T05:12:30.978Z,89.6
2022-10-13T05:13:45.078Z,89.6
2022-10-13T05:16:13.376Z,89.4
2022-10-13T05:17:27.500Z,89.4
2022-10-13T05:18:41.625Z,89.3
2022-10-13T05:19:55.757Z,89.2
2022-10-13T05:23:31.589Z,89.2
2022-10-13T05:24:45.749Z,89.3
2022-10-13T05:25:59.827Z,89.3
2022-10-13T05:28:28.097Z,89.2
2022-10-13T05:29:42.244Z,89.3
2022-10-13T05:32:10.506Z,89.4
2022-10-13T05:33:24.629Z,89.4
2022-10-13T05:34:38.761Z,89.3
2022-10-13T05:35:49.144Z,89.3
2022-10-13T05:37:00.069Z,89.3
2022-10-13T05:38:14.152Z,89.3
2022-10-13T05:39:28.268Z,89.4
2022-10-13T05:40:42.465Z,89.3
2022-10-13T05:41:56.558Z,89.4
2022-10-13T05:43:10.706Z,89.4
2022-10-13T05:44:24.789Z,89.3
2022-10-13T05:45:38.980Z,89.3
2022-10-13T05:46:53.059Z,89.4
2022-10-13T05:48:07.230Z,89.4
2022-10-13T05:49:18.042Z,89.4
2022-10-13T05:50:28.968Z,89.5
2022-10-13T05:51:43.034Z,89.5
2022-10-13T05:52:57.203Z,89.6
2022-10-13T05:54:11.396Z,89.6
2022-10-13T05:55:33.611Z,89.6
2022-10-13T05:56:47.789Z,89.8
2022-10-13T06:00:30.131Z,89.6
2022-10-13T06:01:41.025Z,89.8
2022-10-13T06:02:51.886Z,89.8
2022-10-13T06:05:20.100Z,90
2022-10-13T06:07:48.392Z,90
2022-10-13T06:09:02.501Z,90
2022-10-13T06:10:16.643Z,90
2022-10-13T06:11:30.756Z,89.8
2022-10-13T06:12:44.967Z,89.8
2022-10-13T06:14:02.345Z,89.8
2022-10-13T06:17:41.020Z,89.8
2022-10-13T06:18:55.109Z,89.8
2022-10-13T06:20:09.262Z,89.8
2022-10-13T06:21:23.354Z,89.8
2022-10-13T06:22:37.490Z,89.6
2022-10-13T06:23:51.644Z,89.6
2022-10-13T06:25:05.778Z,89.3
2022-10-13T06:26:19.912Z,89.2
2022-10-13T06:29:55.750Z,89.5
2022-10-13T06:31:09.877Z,89.5
2022-10-13T06:32:24.027Z,89.5
2022-10-13T06:33:38.160Z,89.5
2022-10-13T06:34:52.287Z,89.3
2022-10-13T06:37:20.545Z,89.4
2022-10-13T06:39:48.764Z,89.3
2022-10-13T06:40:59.620Z,89.3
2022-10-13T06:42:10.535Z,89.3
2022-10-13T06:43:24.623Z,89.4
2022-10-13T06:45:52.879Z,89.4
2022-10-13T06:48:21.175Z,89.1
2022-10-13T06:49:35.248Z,88.9
2022-10-13T06:50:49.403Z,88.8
2022-10-13T06:52:03.540Z,88.9
2022-10-13T06:53:17.680Z,89
2022-10-13T07:01:50.037Z,88.9
2022-10-13T07:07:57.432Z,88.7
2022-10-13T07:10:22.407Z,88.4
2022-10-13T07:12:50.645Z,88.4
2022-10-13T07:14:04.909Z,88.4
2022-10-13T07:17:55.340Z,88.2
2022-10-13T07:19:09.531Z,88.2
2022-10-13T07:20:20.345Z,88.3
2022-10-13T07:26:27.774Z,88.4
2022-10-13T07:28:55.982Z,88.4
2022-10-13T07:30:10.099Z,88.4
2022-10-13T07:31:24.269Z,88.4
2022-10-13T07:32:38.356Z,88.1
2022-10-13T07:35:00.091Z,87.7
2022-10-13T07:36:14.221Z,87.6
2022-10-13T07:37:28.353Z,87.6
2022-10-13T07:38:42.489Z,87.4
2022-10-13T07:39:56.601Z,87.1
2022-10-13T07:42:24.909Z,87.1
2022-10-13T07:43:39.032Z,87
2022-10-13T07:44:53.158Z,87
2022-10-13T07:46:07.288Z,87
2022-10-13T07:47:17.719Z,86.9
2022-10-13T07:48:28.568Z,86.9
2022-10-13T07:49:42.674Z,86.7
2022-10-13T07:50:56.829Z,86.6
2022-10-13T07:52:10.950Z,86.5
2022-10-13T07:53:25.042Z,86.5
2022-10-13T07:54:39.234Z,86.6
2022-10-13T07:55:53.328Z,86.6
2022-10-13T07:57:07.484Z,86.6
2022-10-13T07:59:35.736Z,86.6
2022-10-13T08:00:46.619Z,86.4
2022-10-13T08:01:57.469Z,86.4
2022-10-13T08:03:11.576Z,86.3
2022-10-13T08:04:25.685Z,86.3
2022-10-13T08:05:39.831Z,86.2
2022-10-13T08:06:53.942Z,86.2
2022-10-13T08:10:44.578Z,86.5
2022-10-13T08:13:09.533Z,86.2
2022-10-13T08:14:20.426Z,86.2
2022-10-13T08:15:34.515Z,86.2
2022-10-13T08:16:48.633Z,86.2
2022-10-13T08:18:02.808Z,86.2
2022-10-13T08:19:16.932Z,86.2
2022-10-13T08:20:31.079Z,86.1
2022-10-13T08:21:45.192Z,85.8
2022-10-13T08:22:59.333Z,85.9
2022-10-13T08:25:27.586Z,86.1
2022-10-13T08:27:49.315Z,86.2
2022-10-13T08:29:03.411Z,85.8
2022-10-13T08:30:17.517Z,85.4
2022-10-13T08:31:31.655Z,85.2
2022-10-13T08:32:45.806Z,85.2
2022-10-13T08:35:14.079Z,85.6
2022-10-13T08:36:28.218Z,85.7
2022-10-13T08:37:42.299Z,85.7
2022-10-13T08:38:56.460Z,85.2
2022-10-13T08:41:18.146Z,84.9
2022-10-13T08:43:46.460Z,84.9
2022-10-13T08:46:14.690Z,85.1
2022-10-13T08:47:28.792Z,85.1
2022-10-13T08:49:57.041Z,85.2
2022-10-13T08:51:11.166Z,85.3
2022-10-13T08:52:25.311Z,85.5
2022-10-13T08:53:36.229Z,85.5
2022-10-13T08:54:47.066Z,85.5
2022-10-13T08:56:01.164Z,85.3
2022-10-13T08:57:15.316Z,85.3
2022-10-13T08:59:43.590Z,85.2
2022-10-13T09:02:11.836Z,84.9
2022-10-13T09:05:54.216Z,84.9
2022-10-13T09:07:05.042Z,84.8
2022-10-13T09:08:15.540Z,84.9
2022-10-13T09:11:57.876Z,84.9
2022-10-13T09:13:12.055Z,85
2022-10-13T09:15:40.277Z,85.1
2022-10-13T09:16:54.399Z,85
2022-10-13T09:20:33.552Z,84.7
2022-10-13T09:21:44.426Z,84.3
2022-10-13T09:22:58.555Z,84.3
2022-10-13T09:24:12.677Z,84.3
2022-10-13T09:25:26.752Z,84.3
2022-10-13T09:26:40.949Z,84.5
2022-10-13T09:27:55.065Z,84.2
2022-10-13T09:31:37.454Z,83.5
2022-10-13T09:34:02.395Z,83.7
2022-10-13T09:35:13.270Z,83.2
2022-10-13T09:36:27.387Z,83
2022-10-13T09:37:41.530Z,82.8
2022-10-13T09:40:09.793Z,82.5
2022-10-13T09:42:38.059Z,82.3
2022-10-13T09:43:52.179Z,82.5
2022-10-13T09:45:06.324Z,82.3
2022-10-13T09:48:42.152Z,82.4
2022-10-13T09:49:56.333Z,82.4
2022-10-13T09:51:10.422Z,82.4
2022-10-13T09:52:24.589Z,81.8
2022-10-13T09:53:38.724Z,81.7
2022-10-13T09:57:21.088Z,81.5
2022-10-13T09:59:49.310Z,81.5
2022-10-13T10:01:00.175Z,81
2022-10-13T10:02:11.083Z,81.1
2022-10-13T10:03:25.176Z,81.1
2022-10-13T10:04:39.301Z,80.9
2022-10-13T10:07:07.604Z,80.4
2022-10-13T10:08:21.688Z,80.6
2022-10-13T10:09:35.855Z,80.6
2022-10-13T10:10:49.956Z,80.8
2022-10-13T10:12:04.059Z,81
2022-10-13T10:13:18.244Z,81
2022-10-13T10:14:28.624Z,80.7
2022-10-13T10:15:39.543Z,80.2
2022-10-13T10:16:53.677Z,79.8
2022-10-13T10:18:07.813Z,79.3
2022-10-13T10:20:36.019Z,79.4
2022-10-13T10:21:50.168Z,79.8
2022-10-13T10:24:18.408Z,79.7
2022-10-13T10:25:32.538Z,79.3
2022-10-13T10:27:57.524Z,78.6
2022-10-13T10:29:08.421Z,78.3
2022-10-13T10:30:22.581Z,78
2022-10-13T10:31:36.673Z,78.2
2022-10-13T10:32:50.817Z,78.2
2022-10-13T10:34:04.966Z,78.2
2022-10-13T10:36:33.168Z,77.8
2022-10-13T10:37:47.315Z,77.4
2022-10-13T10:39:01.476Z,77.7
2022-10-13T10:40:15.562Z,77.7
2022-10-13T10:41:26.462Z,78
2022-10-13T10:42:37.329Z,78
2022-10-13T10:43:51.406Z,78.1
2022-10-13T10:45:05.548Z,77.4
2022-10-13T10:48:47.960Z,77.1
2022-10-13T10:50:02.109Z,77
2022-10-13T10:51:16.199Z,76.7
2022-10-13T10:52:30.308Z,75.8
2022-10-13T10:53:44.431Z,76.1
2022-10-13T10:57:20.283Z,76.3
2022-10-13T11:01:02.711Z,77.2
2022-10-13T11:02:16.841Z,77.3
2022-10-13T11:04:45.105Z,76.7
2022-10-13T11:07:13.341Z,76.6
2022-10-13T11:08:23.748Z,76.6
2022-10-13T11:09:34.629Z,76.9
2022-10-13T11:12:02.891Z,76.6
2022-10-13T11:13:17.023Z,76
2022-10-13T11:16:59.424Z,76.1
2022-10-13T11:19:27.703Z,76.1
2022-10-13T11:20:41.864Z,76.4
2022-10-13T11:21:52.725Z,76.5
2022-10-13T11:23:03.596Z,76.1
2022-10-13T11:24:17.744Z,76.3
2022-10-13T11:25:31.872Z,76.6
2022-10-13T11:26:45.966Z,76.8
2022-10-13T11:28:00.126Z,77
2022-10-13T11:29:14.262Z,77
2022-10-13T11:30:28.424Z,76.8
2022-10-13T11:31:42.540Z,77
2022-10-13T11:32:56.639Z,77
2022-10-13T11:34:10.771Z,77.6
2022-10-13T11:35:21.667Z,77.7
2022-10-13T11:36:32.478Z,77.7
2022-10-13T11:37:46.653Z,77.9
2022-10-13T11:39:00.736Z,78.1
2022-10-13T11:40:14.893Z,78.2
2022-10-13T11:41:29.021Z,78.4
2022-10-13T11:42:43.224Z,78.6
2022-10-13T11:44:05.485Z,78.7
2022-10-13T11:46:33.732Z,78.7
2022-10-13T11:47:44.550Z,78.8
2022-10-13T11:50:09.543Z,79.1
2022-10-13T11:51:23.694Z,79.2
2022-10-13T11:53:51.979Z,78.9
2022-10-13T11:57:34.387Z,79
2022-10-13T12:02:24.360Z,77.3
2022-10-13T12:03:38.480Z,77.5
2022-10-13T12:04:52.575Z,77.7
2022-10-13T12:07:29.018Z,76.8
2022-10-13T12:08:43.230Z,77.2
2022-10-13T12:11:19.592Z,77
2022-10-13T12:13:44.595Z,76.5
2022-10-13T12:14:55.479Z,76.3
2022-10-13T12:16:09.636Z,76.8
2022-10-13T12:21:06.140Z,75.9
2022-10-13T12:22:20.271Z,76
2022-10-13T12:24:48.496Z,76.8
2022-10-13T12:26:02.649Z,76.8
2022-10-13T12:27:13.467Z,77
2022-10-13T12:29:38.079Z,77
2022-10-13T12:30:52.202Z,76.5
2022-10-13T12:32:06.276Z,76.7
2022-10-13T12:33:20.421Z,77
2022-10-13T12:34:34.585Z,77
2022-10-13T12:35:48.700Z,77.3
2022-10-13T12:37:02.812Z,77.9
2022-10-13T12:38:16.928Z,78.2
2022-10-13T12:39:31.063Z,78.4
2022-10-13T12:40:41.948Z,78.5
2022-10-13T12:43:06.943Z,79
2022-10-13T12:44:21.036Z,78.9
2022-10-13T12:45:35.176Z,79.1
2022-10-13T12:46:49.314Z,79.1
2022-10-13T12:48:03.485Z,79
2022-10-13T12:49:17.606Z,78.3
2022-10-13T12:50:31.713Z,78.4
2022-10-13T12:51:45.865Z,79.1
2022-10-13T12:54:10.834Z,79.8
2022-10-13T12:55:21.722Z,80.4
2022-10-13T13:00:18.201Z,79.6
2022-10-13T13:01:32.364Z,79.9
2022-10-13T13:02:46.449Z,80.1
2022-10-13T13:04:00.610Z,80.2
2022-10-13T13:05:14.755Z,80.6
2022-10-13T13:06:28.862Z,81.1
2022-10-13T13:08:50.613Z,81.5
2022-10-13T13:11:18.860Z,81.6
2022-10-13T13:12:32.986Z,81.7
2022-10-13T13:19:57.761Z,81.2
2022-10-13T13:21:08.171Z,81.1
2022-10-13T13:22:19.085Z,81.2
2022-10-13T13:23:33.202Z,81.8
2022-10-13T13:24:47.287Z,83
2022-10-13T13:27:15.569Z,83.8
2022-10-13T13:28:29.668Z,83.7
2022-10-13T13:29:43.853Z,82.5
2022-10-13T13:30:57.918Z,82.2
2022-10-13T13:34:37.096Z,82.5
2022-10-13T13:35:47.958Z,83
2022-10-13T13:37:02.030Z,83
2022-10-13T13:39:30.347Z,82.1
2022-10-13T13:40:44.412Z,81.6
2022-10-13T13:43:12.713Z,80.8
2022-10-13T13:44:26.840Z,80.6
2022-10-13T13:45:40.954Z,80.5
2022-10-13T13:46:55.098Z,80.7
2022-10-13T13:48:05.936Z,80.9
2022-10-13T13:49:16.825Z,80.8
2022-10-13T13:50:30.945Z,80.4
2022-10-13T13:51:45.042Z,80.5
2022-10-13T13:55:27.465Z,81
2022-10-13T13:57:55.741Z,81.3
2022-10-13T13:59:09.862Z,81.3
2022-10-13T14:00:23.985Z,81.3
2022-10-13T14:01:34.871Z,81.2
2022-10-13T14:02:45.719Z,81.5
2022-10-13T14:05:13.941Z,82.2
2022-10-13T14:06:28.119Z,82.4
2022-10-13T14:07:42.239Z,82.7
2022-10-13T14:10:10.452Z,82.9
2022-10-13T14:11:24.587Z,83.2
2022-10-13T14:12:38.746Z,83.6
2022-10-13T14:13:52.841Z,83.4
2022-10-13T14:16:14.574Z,83.7
2022-10-13T14:17:28.705Z,84
2022-10-13T14:18:42.879Z,84.2
2022-10-13T14:19:56.985Z,84.5
2022-10-13T14:21:11.075Z,84.7
2022-10-13T14:22:25.252Z,85
2022-10-13T14:23:39.362Z,85.5
2022-10-13T14:27:21.743Z,85.7
2022-10-13T14:28:32.635Z,85.7
2022-10-13T14:29:43.082Z,85.8
2022-10-13T14:32:11.309Z,86
2022-10-13T14:33:25.474Z,86.1
2022-10-13T14:34:39.598Z,86.2
2022-10-13T14:37:07.800Z,86.3
2022-10-13T14:39:36.081Z,86.5
2022-10-13T14:42:01.110Z,86.5
2022-10-13T14:43:11.921Z,86.6
2022-10-13T14:46:54.355Z,87.1
2022-10-13T14:48:08.427Z,87.3
2022-10-13T14:49:22.555Z,87.8
2022-10-13T14:51:50.818Z,87.9
2022-10-13T14:53:04.975Z,87.7
2022-10-13T14:54:19.118Z,87.9
2022-10-13T14:55:29.942Z,88.1
2022-10-13T14:56:40.854Z,88.2
2022-10-13T14:57:54.973Z,88.4
2022-10-13T15:00:23.181Z,88.4
2022-10-13T15:01:37.377Z,88.4
2022-10-13T15:02:51.461Z,88.5
2022-10-13T15:06:33.849Z,88.8
2022-10-13T15:07:47.987Z,89
2022-10-13T15:08:58.866Z,89.1
2022-10-13T15:12:37.956Z,89.3
2022-10-13T15:13:52.141Z,89.7
2022-10-13T15:16:20.361Z,90.7
2022-10-13T15:17:34.520Z,90.8
2022-10-13T15:18:48.592Z,91
2022-10-13T15:20:02.777Z,91.2
2022-10-13T15:23:38.584Z,90.8
2022-10-13T15:24:52.706Z,90.9
2022-10-13T15:26:06.897Z,90.3
2022-10-13T15:27:20.956Z,90.2
2022-10-13T15:28:35.222Z,90.3
2022-10-13T15:31:11.547Z,90.8
2022-10-13T15:32:25.691Z,91
2022-10-13T15:33:39.826Z,91.2
2022-10-13T15:34:50.715Z,91.3
2022-10-13T15:37:15.693Z,91.7
2022-10-13T15:38:29.823Z,91.8
2022-10-13T15:40:58.078Z,91.8
2022-10-13T15:43:26.296Z,92.1
2022-10-13T15:45:54.603Z,92.2
2022-10-13T15:47:08.694Z,92.3
2022-10-13T15:48:19.577Z,92.3
2022-10-13T15:49:30.421Z,92
2022-10-13T15:50:44.567Z,91.7
2022-10-13T15:51:58.720Z,91.7
2022-10-13T15:53:12.819Z,91.8
2022-10-13T15:54:26.938Z,92
2022-10-13T15:55:41.060Z,92
2022-10-13T15:56:55.218Z,92
2022-10-13T15:58:09.338Z,92.1
2022-10-13T15:59:23.503Z,92.1
2022-10-13T16:00:37.633Z,92.2
2022-10-13T16:01:48.504Z,92.3
2022-10-13T16:02:59.353Z,92.3
2022-10-13T16:04:13.419Z,92.5
2022-10-13T16:05:27.593Z,92.6
2022-10-13T16:07:55.831Z,92.1
2022-10-13T16:09:09.985Z,92.2
2022-10-13T16:10:24.136Z,92.2
2022-10-13T16:11:38.291Z,92.2
2022-10-13T16:13:00.570Z,92.2
2022-10-13T16:14:11.424Z,92.2
2022-10-13T16:15:22.281Z,92
2022-10-13T16:16:36.386Z,92
2022-10-13T16:17:50.578Z,92.2
2022-10-13T16:20:18.793Z,92.4
2022-10-13T16:21:32.946Z,92.4
2022-10-13T16:22:47.084Z,92.4
2022-10-13T16:24:01.174Z,92.3
2022-10-13T16:25:15.278Z,92.2
2022-10-13T16:26:29.462Z,92.2
2022-10-13T16:28:51.130Z,91.7
2022-10-13T16:30:05.366Z,91.5
2022-10-13T16:31:27.635Z,91.5
2022-10-13T16:32:41.751Z,91.7
2022-10-13T16:33:55.872Z,91.8
2022-10-13T16:35:09.974Z,91.8
2022-10-13T16:37:38.225Z,92
2022-10-13T16:38:52.352Z,91.8
2022-10-13T16:40:03.257Z,91.8
2022-10-13T16:41:14.165Z,91.8
2022-10-13T16:42:28.270Z,91.8
2022-10-13T16:44:56.493Z,92
2022-10-13T16:46:10.601Z,92
2022-10-13T16:49:53.016Z,92.6
2022-10-13T16:51:07.130Z,92.8
2022-10-13T16:53:32.171Z,93.1
2022-10-13T16:54:42.999Z,93.2
2022-10-13T16:55:57.128Z,93.3
2022-10-13T16:58:25.414Z,93.6
2022-10-13T17:00:53.684Z,93.8
2022-10-13T17:02:07.790Z,94
2022-10-13T17:03:21.866Z,94.1
2022-10-13T17:04:36.041Z,94.2
2022-10-13T17:05:50.142Z,94.3
2022-10-13T17:07:00.607Z,94.4
2022-10-13T17:08:11.440Z,94.5
2022-10-13T17:09:25.544Z,94.7
2022-10-13T17:10:39.738Z,94.8
2022-10-13T17:13:07.962Z,94.9
2022-10-13T17:14:22.121Z,95
2022-10-13T17:15:36.260Z,95.3
2022-10-13T17:16:50.380Z,95.4
2022-10-13T17:18:04.511Z,95.4
2022-10-13T17:19:18.642Z,95.4
2022-10-13T17:20:29.449Z,95.5
2022-10-13T17:22:54.486Z,95.6
2022-10-13T17:24:08.569Z,95.6
2022-10-13T17:25:22.687Z,95.6
2022-10-13T17:26:36.828Z,95.6
2022-10-13T17:27:50.982Z,95.6
2022-10-13T17:29:05.094Z,95.6
2022-10-13T17:31:33.360Z,95.6
2022-10-13T17:32:47.505Z,95.8
2022-10-13T17:35:09.222Z,95.7
2022-10-13T17:38:51.609Z,95.4
2022-10-13T17:40:05.738Z,95.3
2022-10-13T17:41:19.891Z,95.3
2022-10-13T17:42:34.017Z,95.2
2022-10-13T17:43:48.104Z,94.9
2022-10-13T17:46:16.379Z,94.4
2022-10-13T17:47:27.245Z,94.2
2022-10-13T17:51:06.403Z,93.8
2022-10-13T17:52:20.482Z,93.8
2022-10-13T17:56:02.929Z,93.9
2022-10-13T17:57:16.977Z,94.1
2022-10-13T17:58:31.139Z,94.2
2022-10-13T17:59:45.243Z,94.4
2022-10-13T18:00:56.120Z,94.5
2022-10-13T18:02:07.029Z,94.7
2022-10-13T18:03:21.129Z,94.8
2022-10-13T18:04:35.258Z,94.9
2022-10-13T18:05:49.412Z,95
2022-10-13T18:07:03.541Z,95.1
2022-10-13T18:09:31.790Z,95.4
2022-10-13T18:10:45.920Z,95.6
2022-10-13T18:12:00.040Z,95.8
2022-10-13T18:13:14.179Z,95.9
2022-10-13T18:14:25.013Z,96
2022-10-13T18:15:35.895Z,96
2022-10-13T18:16:50.045Z,96
2022-10-13T18:18:04.157Z,96.1
2022-10-13T18:19:18.291Z,96.2
2022-10-13T18:20:32.392Z,96.2
2022-10-13T18:23:08.852Z,96.3
2022-10-13T18:24:22.977Z,96.4
2022-10-13T18:25:37.114Z,96.5
2022-10-13T18:26:47.984Z,96.5
2022-10-13T18:27:58.863Z,96.4
2022-10-13T18:29:12.946Z,96.4
2022-10-13T18:30:27.102Z,96.4
2022-10-13T18:31:41.190Z,96.4
2022-10-13T18:32:55.337Z,96.3
2022-10-13T18:35:23.588Z,96.1
2022-10-13T18:36:37.728Z,96.1
2022-10-13T18:39:05.971Z,95.9
2022-10-13T18:41:27.695Z,95.9
2022-10-13T18:42:41.869Z,95.8
2022-10-13T18:43:55.949Z,95.9
2022-10-13T18:45:10.105Z,95.9
2022-10-13T18:47:38.391Z,96
2022-10-13T18:48:52.494Z,95.7
2022-10-13T18:50:06.630Z,95.6
2022-10-13T18:51:20.785Z,95.6
2022-10-13T18:52:34.885Z,95.6
2022-10-13T18:53:45.779Z,95.7
2022-10-13T18:54:56.642Z,95.7
2022-10-13T18:56:10.743Z,95.8
2022-10-13T18:57:24.848Z,95.8
2022-10-13T18:59:53.159Z,96
2022-10-13T19:01:07.262Z,96.1
2022-10-13T19:02:21.412Z,96.2
2022-10-13T19:03:35.516Z,96.3
2022-10-13T19:06:03.766Z,96.4
2022-10-13T19:07:14.634Z,96.5
2022-10-13T19:08:25.469Z,96.6
2022-10-13T19:09:39.632Z,96.6
2022-10-13T19:12:07.904Z,96.7
2022-10-13T19:13:22.037Z,96.7
2022-10-13T19:14:36.140Z,96.7
2022-10-13T19:15:50.269Z,96.7
2022-10-13T19:17:04.409Z,96.7
2022-10-13T19:19:32.681Z,96.4
2022-10-13T19:20:43.492Z,96.3
2022-10-13T19:21:54.342Z,96.2
2022-10-13T19:23:08.524Z,96.2
2022-10-13T19:24:22.637Z,96.2
2022-10-13T19:25:36.752Z,96.1
2022-10-13T19:26:50.875Z,96.1
2022-10-13T19:28:05.041Z,96
2022-10-13T19:29:19.189Z,96
2022-10-13T19:30:33.275Z,96
2022-10-13T19:31:47.425Z,96
2022-10-13T19:33:01.546Z,95.9
2022-10-13T19:34:12.375Z,95.9
2022-10-13T19:35:22.913Z,95.8
2022-10-13T19:36:45.122Z,95.6
2022-10-13T19:37:59.385Z,95.4
2022-10-13T19:40:35.735Z,95.1
2022-10-13T19:43:04.001Z,94.6
2022-10-13T19:44:18.079Z,94.6
2022-10-13T19:45:32.202Z,94.5
2022-10-13T19:47:53.970Z,93.9
2022-10-13T19:49:08.064Z,93.9
2022-10-13T19:50:22.254Z,94
2022-10-13T19:51:36.370Z,93.9
2022-10-13T19:52:50.475Z,93.8
2022-10-13T19:54:04.575Z,93.8
2022-10-13T19:55:18.742Z,93.7
2022-10-13T19:56:32.930Z,93.5
2022-10-13T19:57:55.197Z,93.4
2022-10-13T19:59:06.036Z,93.4
2022-10-13T20:00:16.945Z,93.6
2022-10-13T20:01:31.043Z,93.7
2022-10-13T20:02:45.146Z,93.8
2022-10-13T20:05:13.430Z,93.9
2022-10-13T20:07:41.702Z,94.1
2022-10-13T20:08:55.815Z,94.1
2022-10-13T20:10:09.935Z,93.9
2022-10-13T20:12:34.939Z,93.9
2022-10-13T20:13:45.329Z,93.7
2022-10-13T20:14:59.508Z,93.5
2022-10-13T20:17:27.767Z,93.4
2022-10-13T20:18:41.861Z,93.5
2022-10-13T20:21:10.155Z,93.3
2022-10-13T20:22:24.231Z,93.2
2022-10-13T20:24:52.498Z,93.2
2022-10-13T20:26:03.363Z,93
2022-10-13T20:27:14.210Z,92.7
2022-10-13T20:28:28.402Z,92.4
2022-10-13T20:29:42.490Z,92.4
2022-10-13T20:30:56.620Z,92.2
2022-10-13T20:33:24.903Z,92.3
2022-10-13T20:34:39.009Z,92.3
2022-10-13T20:37:07.282Z,92.1
2022-10-13T20:39:32.293Z,91.7
2022-10-13T20:40:43.102Z,91.8
2022-10-13T20:43:11.367Z,92
2022-10-13T20:45:39.678Z,92
2022-10-13T20:46:53.792Z,92.1
2022-10-13T20:48:07.911Z,92.2
2022-10-13T20:49:22.026Z,92.3
2022-10-13T20:50:36.151Z,92.4
2022-10-13T20:54:11.979Z,92.5
2022-10-13T20:55:26.107Z,92.5
2022-10-13T20:56:40.289Z,92.4
2022-10-13T20:57:54.366Z,92.3
2022-10-13T20:59:08.527Z,92.3
2022-10-13T21:00:22.670Z,92.3
2022-10-13T21:01:36.814Z,92.4
2022-10-13T21:04:05.075Z,92.5
2022-10-13T21:05:19.206Z,92.6
2022-10-13T21:06:30.071Z,92.7
2022-10-13T21:08:55.022Z,92.6
2022-10-13T21:10:09.143Z,92.6
2022-10-13T21:11:23.299Z,92.6
2022-10-13T21:12:37.394Z,92.7
2022-10-13T21:13:51.507Z,92.8
2022-10-13T21:15:05.660Z,92.8
2022-10-13T21:16:19.797Z,93
2022-10-13T21:17:33.897Z,93.1
2022-10-13T21:18:48.030Z,93.3
2022-10-13T21:19:58.525Z,93.5
2022-10-13T21:22:23.474Z,93.5
2022-10-13T21:23:37.591Z,93.5
2022-10-13T21:24:51.756Z,93.5
2022-10-13T21:26:05.853Z,93.5
2022-10-13T21:29:48.287Z,93.7
2022-10-13T21:31:02.419Z,93.7
2022-10-13T21:33:27.374Z,93.7
2022-10-13T21:34:38.274Z,93.5
2022-10-13T21:35:52.396Z,93.3
2022-10-13T21:37:06.530Z,93.3